createdAt,value
2022-08-24T00:02:01.636Z,94398.00
2022-08-24T00:04:32.030Z,94396.00
2022-08-24T00:07:03.901Z,94397.00
2022-08-24T00:09:32.618Z,94406.00
2022-08-24T00:12:02.122Z,94392.00
2022-08-24T00:14:29.420Z,94400.00
2022-08-24T00:17:02.345Z,94396.00
2022-08-24T00:19:29.724Z,94405.00
2022-08-24T00:21:56.621Z,94394.00
2022-08-24T00:24:23.621Z,94399.00
2022-08-24T00:26:50.934Z,94401.00
2022-08-24T00:29:21.688Z,94397.00
2022-08-24T00:31:50.878Z,94401.00
2022-08-24T00:34:20.822Z,94405.00
2022-08-24T00:36:50.317Z,94398.00
2022-08-24T00:39:17.275Z,94392.00
2022-08-24T00:41:47.424Z,94391.00
2022-08-24T00:44:19.800Z,94391.00
2022-08-24T00:46:55.734Z,94395.00
2022-08-24T00:49:37.840Z,94397.00
2022-08-24T00:52:21.027Z,94386.00
2022-08-24T00:54:58.996Z,94387.00
2022-08-24T00:57:34.704Z,94388.00
2022-08-24T01:00:14.673Z,94388.00
2022-08-24T01:02:45.462Z,94389.00
2022-08-24T01:05:19.312Z,94382.00
2022-08-24T01:07:50.765Z,94378.00
2022-08-24T01:10:25.135Z,94379.00
2022-08-24T01:13:01.388Z,94385.00
2022-08-24T01:15:31.449Z,94379.00
2022-08-24T01:18:21.574Z,94385.00
2022-08-24T01:21:05.861Z,94387.00
2022-08-24T01:24:09.925Z,94380.00
2022-08-24T01:26:48.685Z,94387.00
2022-08-24T01:29:31.511Z,94385.00
2022-08-24T01:32:01.499Z,94386.00
2022-08-24T01:34:30.972Z,94388.00
2022-08-24T01:37:00.520Z,94379.00
2022-08-24T01:39:29.462Z,94383.00
2022-08-24T01:41:57.358Z,94375.00
2022-08-24T01:44:27.602Z,94377.00
2022-08-24T01:47:00.757Z,94373.00
2022-08-24T01:49:39.230Z,94376.00
2022-08-24T01:52:12.696Z,94368.00
2022-08-24T01:54:43.408Z,94376.00
2022-08-24T01:57:16.081Z,94375.00
2022-08-24T01:59:43.500Z,94375.00
2022-08-24T02:02:26.263Z,94377.00
2022-08-24T02:04:53.655Z,94381.00
2022-08-24T02:07:20.571Z,94375.00
2022-08-24T02:09:50.590Z,94373.00
2022-08-24T02:12:20.598Z,94376.00
2022-08-24T02:14:47.949Z,94377.00
2022-08-24T02:17:17.984Z,94377.00
2022-08-24T02:19:46.177Z,94382.00
2022-08-24T02:22:16.027Z,94382.00
2022-08-24T02:24:43.190Z,94374.00
2022-08-24T02:27:12.163Z,94379.00
2022-08-24T02:29:42.197Z,94372.00
2022-08-24T02:32:09.775Z,94373.00
2022-08-24T02:34:39.273Z,94380.00
2022-08-24T02:37:06.823Z,94382.00
2022-08-24T02:39:33.785Z,94384.00
2022-08-24T02:42:00.698Z,94385.00
2022-08-24T02:44:29.869Z,94385.00
2022-08-24T02:46:58.994Z,94379.00
2022-08-24T02:49:26.005Z,94380.00
2022-08-24T02:51:53.026Z,94381.00
2022-08-24T02:54:20.018Z,94373.00
2022-08-24T02:56:49.837Z,94374.00
2022-08-24T02:59:20.106Z,94366.00
2022-08-24T03:01:49.701Z,94377.00
2022-08-24T03:04:17.705Z,94380.00
2022-08-24T03:06:44.720Z,94376.00
2022-08-24T03:09:12.073Z,94383.00
2022-08-24T03:11:39.074Z,94375.00
2022-08-24T03:14:06.013Z,94381.00
2022-08-24T03:16:32.949Z,94372.00
2022-08-24T03:19:00.369Z,94366.00
2022-08-24T03:21:27.530Z,94361.00
2022-08-24T03:23:56.748Z,94368.00
2022-08-24T03:26:25.904Z,94364.00
2022-08-24T03:28:56.219Z,94361.00
2022-08-24T03:31:28.323Z,94365.00
2022-08-24T03:33:55.211Z,94369.00
2022-08-24T03:36:24.222Z,94363.00
2022-08-24T03:38:54.124Z,94358.00
2022-08-24T03:41:21.013Z,94357.00
2022-08-24T03:43:48.979Z,94366.00
2022-08-24T03:46:29.298Z,94367.00
2022-08-24T03:49:00.782Z,94367.00
2022-08-24T03:51:28.624Z,94363.00
2022-08-24T03:53:58.583Z,94359.00
2022-08-24T03:56:26.450Z,94366.00
2022-08-24T03:58:53.761Z,94360.00
2022-08-24T04:01:21.436Z,94363.00
2022-08-24T04:03:54.144Z,94374.00
2022-08-24T04:06:24.093Z,94366.00
2022-08-24T04:08:52.385Z,94368.00
2022-08-24T04:11:27.598Z,94366.00
2022-08-24T04:13:58.844Z,94362.00
2022-08-24T04:16:28.205Z,94364.00
2022-08-24T04:18:57.485Z,94366.00
2022-08-24T04:21:29.875Z,94364.00
2022-08-24T04:23:58.447Z,94375.00
2022-08-24T04:26:45.584Z,94375.00
2022-08-24T04:29:17.273Z,94378.00
2022-08-24T04:31:48.916Z,94379.00
2022-08-24T04:34:18.438Z,94372.00
2022-08-24T04:36:48.178Z,94382.00
2022-08-24T04:39:15.396Z,94376.00
2022-08-24T04:41:42.524Z,94379.00
2022-08-24T04:44:09.810Z,94385.00
2022-08-24T04:46:36.755Z,94386.00
2022-08-24T04:49:04.402Z,94386.00
2022-08-24T04:51:36.226Z,94387.00
2022-08-24T04:54:04.774Z,94393.00
2022-08-24T04:56:35.116Z,94391.00
2022-08-24T04:59:03.800Z,94396.00
2022-08-24T05:01:32.837Z,94399.00
2022-08-24T05:04:00.419Z,94388.00
2022-08-24T05:06:31.037Z,94391.00
2022-08-24T05:09:01.894Z,94388.00
2022-08-24T05:11:29.091Z,94386.00
2022-08-24T05:13:57.114Z,94392.00
2022-08-24T05:16:25.915Z,94392.00
2022-08-24T05:18:57.107Z,94398.00
2022-08-24T05:21:25.249Z,94400.00
2022-08-24T05:23:54.435Z,94405.00
2022-08-24T05:26:26.927Z,94403.00
2022-08-24T05:29:02.603Z,94398.00
2022-08-24T05:31:32.686Z,94387.00
2022-08-24T05:34:04.055Z,94400.00
2022-08-24T05:36:35.029Z,94402.00
2022-08-24T05:39:11.136Z,94397.00
2022-08-24T05:41:44.287Z,94394.00
2022-08-24T05:44:14.103Z,94393.00
2022-08-24T05:46:44.150Z,94391.00
2022-08-24T05:49:12.627Z,94397.00
2022-08-24T05:51:42.556Z,94397.00
2022-08-24T05:54:13.681Z,94396.00
2022-08-24T05:56:43.137Z,94394.00
2022-08-24T05:59:10.553Z,94403.00
2022-08-24T06:01:40.323Z,94396.00
2022-08-24T06:04:15.924Z,94389.00
2022-08-24T06:06:48.649Z,94394.00
2022-08-24T06:09:16.302Z,94393.00
2022-08-24T06:11:45.639Z,94388.00
2022-08-24T06:14:18.355Z,94392.00
2022-08-24T06:16:47.551Z,94401.00
2022-08-24T06:19:19.860Z,94387.00
2022-08-24T06:21:49.991Z,94400.00
2022-08-24T06:24:37.308Z,94396.00
2022-08-24T06:27:22.634Z,94390.00
2022-08-24T06:30:01.667Z,94394.00
2022-08-24T06:32:29.263Z,94391.00
2022-08-24T06:34:59.793Z,94397.00
2022-08-24T06:37:29.180Z,94399.00
2022-08-24T06:39:58.466Z,94385.00
2022-08-24T06:42:25.743Z,94392.00
2022-08-24T06:44:56.279Z,94389.00
2022-08-24T06:47:25.481Z,94393.00
2022-08-24T06:49:52.563Z,94395.00
2022-08-24T06:52:19.590Z,94399.00
2022-08-24T06:54:48.967Z,94408.00
2022-08-24T06:57:17.962Z,94398.00
2022-08-24T06:59:47.936Z,94401.00
2022-08-24T07:02:15.809Z,94408.00
2022-08-24T07:04:42.769Z,94402.00
2022-08-24T07:07:14.971Z,94403.00
2022-08-24T07:09:44.418Z,94418.00
2022-08-24T07:12:11.326Z,94408.00
2022-08-24T07:14:43.246Z,94404.00
2022-08-24T07:17:10.130Z,94407.00
2022-08-24T07:19:42.196Z,94403.00
2022-08-24T07:22:11.640Z,94404.00
2022-08-24T07:24:41.264Z,94399.00
2022-08-24T07:27:14.058Z,94395.00
2022-08-24T07:29:50.701Z,94401.00
2022-08-24T07:32:20.426Z,94397.00
2022-08-24T07:34:47.366Z,94394.00
2022-08-24T07:37:17.333Z,94392.00
2022-08-24T07:39:44.345Z,94397.00
2022-08-24T07:42:18.885Z,94390.00
2022-08-24T07:44:51.374Z,94395.00
2022-08-24T07:47:37.428Z,94390.00
2022-08-24T07:50:06.714Z,94386.00
2022-08-24T07:52:33.719Z,94383.00
2022-08-24T07:55:03.635Z,94388.00
2022-08-24T07:57:32.902Z,94387.00
2022-08-24T08:00:04.899Z,94386.00
2022-08-24T08:02:36.378Z,94387.00
2022-08-24T08:05:05.048Z,94399.00
2022-08-24T08:07:32.047Z,94399.00
2022-08-24T08:10:02.033Z,94399.00
2022-08-24T08:12:28.948Z,94398.00
2022-08-24T08:14:58.413Z,94394.00
2022-08-24T08:17:28.760Z,94394.00
2022-08-24T08:19:58.225Z,94401.00
2022-08-24T08:22:43.410Z,94390.00
2022-08-24T08:25:12.565Z,94395.00
2022-08-24T08:27:39.476Z,94389.00
2022-08-24T08:30:07.655Z,94386.00
2022-08-24T08:32:34.566Z,94394.00
2022-08-24T08:35:03.882Z,94387.00
2022-08-24T08:37:31.294Z,94389.00
2022-08-24T08:39:58.913Z,94387.00
2022-08-24T08:42:53.092Z,94386.00
2022-08-24T08:45:47.178Z,94390.00
2022-08-24T08:48:32.224Z,94387.00
2022-08-24T08:51:19.828Z,94378.00
2022-08-24T08:54:12.394Z,94385.00
2022-08-24T08:56:59.469Z,94381.00
2022-08-24T08:59:51.156Z,94375.00
2022-08-24T09:02:47.745Z,94380.00
2022-08-24T09:05:35.200Z,94378.00
2022-08-24T09:08:20.519Z,94385.00
2022-08-24T09:11:13.765Z,94373.00
2022-08-24T09:14:04.577Z,94377.00
2022-08-24T09:16:59.782Z,94378.00
2022-08-24T09:20:17.148Z,94378.00
2022-08-24T09:22:48.301Z,94389.00
2022-08-24T09:25:39.586Z,94389.00
2022-08-24T09:28:46.791Z,94389.00
2022-08-24T09:31:44.917Z,94391.00
2022-08-24T09:34:32.415Z,94394.00
2022-08-24T09:37:02.388Z,94389.00
2022-08-24T09:40:19.491Z,94389.00
2022-08-24T09:43:33.416Z,94384.00
2022-08-24T09:46:32.627Z,94381.00
2022-08-24T09:49:14.567Z,94388.00
2022-08-24T09:52:21.497Z,94384.00
2022-08-24T09:54:51.429Z,94376.00
2022-08-24T09:58:01.893Z,94380.00
2022-08-24T10:00:44.660Z,94376.00
2022-08-24T10:04:08.468Z,94375.00
2022-08-24T10:07:31.227Z,94383.00
2022-08-24T10:10:19.482Z,94373.00
2022-08-24T10:12:57.759Z,94374.00
2022-08-24T10:15:34.131Z,94379.00
2022-08-24T10:18:22.176Z,94375.00
2022-08-24T10:21:29.069Z,94374.00
2022-08-24T10:24:01.843Z,94375.00
2022-08-24T10:26:47.930Z,94371.00
2022-08-24T10:29:55.139Z,94359.00
2022-08-24T10:32:51.141Z,94362.00
2022-08-24T10:35:25.888Z,94369.00
2022-08-24T10:38:41.084Z,94357.00
2022-08-24T10:41:46.848Z,94354.00
2022-08-24T10:44:26.241Z,94364.00
2022-08-24T10:47:20.433Z,94364.00
2022-08-24T10:50:08.405Z,94357.00
2022-08-24T10:53:13.810Z,94361.00
2022-08-24T10:55:44.560Z,94352.00
2022-08-24T10:58:43.647Z,94355.00
2022-08-24T11:01:31.894Z,94352.00
2022-08-24T11:04:01.543Z,94355.00
2022-08-24T11:06:40.169Z,94348.00
2022-08-24T11:09:18.672Z,94349.00
2022-08-24T11:11:50.140Z,94347.00
2022-08-24T11:14:29.383Z,94354.00
2022-08-24T11:17:17.005Z,94352.00
2022-08-24T11:19:48.881Z,94359.00
2022-08-24T11:22:37.783Z,94356.00
2022-08-24T11:25:40.439Z,94352.00
2022-08-24T11:28:25.704Z,94347.00
2022-08-24T11:30:55.645Z,94355.00
2022-08-24T11:33:49.452Z,94359.00
2022-08-24T11:36:23.593Z,94353.00
2022-08-24T11:39:21.916Z,94354.00
2022-08-24T11:42:27.404Z,94339.00
2022-08-24T11:45:16.130Z,94342.00
2022-08-24T11:48:28.522Z,94341.00
2022-08-24T11:51:21.215Z,94337.00
2022-08-24T11:54:04.116Z,94347.00
2022-08-24T11:56:42.910Z,94345.00
2022-08-24T11:59:21.697Z,94344.00
2022-08-24T12:01:58.249Z,94338.00
2022-08-24T12:04:40.887Z,94342.00
2022-08-24T12:07:07.724Z,94336.00
2022-08-24T12:10:01.125Z,94343.00
2022-08-24T12:12:42.969Z,94349.00
2022-08-24T12:15:51.783Z,94348.00
2022-08-24T12:18:44.023Z,94344.00
2022-08-24T12:21:19.625Z,94343.00
2022-08-24T12:23:52.952Z,94334.00
2022-08-24T12:26:41.287Z,94342.00
2022-08-24T12:29:42.454Z,94338.00
2022-08-24T12:32:12.079Z,94337.00
2022-08-24T12:35:06.630Z,94335.00
2022-08-24T12:37:45.268Z,94333.00
2022-08-24T12:40:27.123Z,94339.00
2022-08-24T12:43:06.985Z,94335.00
2022-08-24T12:45:35.418Z,94329.00
2022-08-24T12:48:21.425Z,94335.00
2022-08-24T12:51:20.945Z,94344.00
2022-08-24T12:54:17.653Z,94342.00
2022-08-24T12:57:18.374Z,94330.00
2022-08-24T13:00:17.169Z,94335.00
2022-08-24T13:02:48.215Z,94329.00
2022-08-24T13:05:20.719Z,94343.00
2022-08-24T13:08:10.154Z,94334.00
2022-08-24T13:10:53.797Z,94335.00
2022-08-24T13:13:41.469Z,94339.00
2022-08-24T13:16:09.164Z,94324.00
2022-08-24T13:19:13.427Z,94323.00
2022-08-24T13:22:15.865Z,94324.00
2022-08-24T13:25:39.638Z,94328.00
2022-08-24T13:28:26.588Z,94324.00
2022-08-24T13:31:04.394Z,94319.00
2022-08-24T13:33:49.531Z,94319.00
2022-08-24T13:36:31.548Z,94319.00
2022-08-24T13:39:34.982Z,94325.00
2022-08-24T13:42:10.934Z,94318.00
2022-08-24T13:45:20.880Z,94318.00
2022-08-24T13:48:32.463Z,94320.00
2022-08-24T13:51:38.612Z,94321.00
2022-08-24T13:54:20.465Z,94319.00
2022-08-24T13:57:32.224Z,94317.00
2022-08-24T13:59:59.124Z,94320.00
2022-08-24T14:02:56.242Z,94317.00
2022-08-24T14:06:05.980Z,94304.00
2022-08-24T14:09:20.155Z,94313.00
2022-08-24T14:12:39.643Z,94307.00
2022-08-24T14:15:33.322Z,94308.00
2022-08-24T14:18:32.284Z,94307.00
2022-08-24T14:21:18.044Z,94305.00
2022-08-24T14:23:55.667Z,94301.00
2022-08-24T14:26:38.131Z,94296.00
2022-08-24T14:29:19.836Z,94302.00
2022-08-24T14:32:01.446Z,94295.00
2022-08-24T14:35:27.517Z,94304.00
2022-08-24T14:38:23.141Z,94296.00
2022-08-24T14:41:03.291Z,94294.00
2022-08-24T14:43:44.314Z,94304.00
2022-08-24T14:47:03.454Z,94300.00
2022-08-24T14:49:45.252Z,94299.00
2022-08-24T14:52:30.132Z,94295.00
2022-08-24T14:55:28.810Z,94299.00
2022-08-24T14:58:07.567Z,94298.00
2022-08-24T15:01:15.165Z,94301.00
2022-08-24T15:04:15.430Z,94300.00
2022-08-24T15:07:32.158Z,94292.00
2022-08-24T15:10:02.943Z,94297.00
2022-08-24T15:12:52.957Z,94289.00
2022-08-24T15:15:56.034Z,94299.00
2022-08-24T15:18:47.942Z,94294.00
2022-08-24T15:21:18.109Z,94294.00
2022-08-24T15:23:50.970Z,94299.00
2022-08-24T15:26:45.426Z,94292.00
2022-08-24T15:29:27.149Z,94298.00
2022-08-24T15:32:07.744Z,94300.00
2022-08-24T15:34:50.255Z,94297.00
2022-08-24T15:37:35.779Z,94301.00
2022-08-24T15:40:16.886Z,94286.00
2022-08-24T15:42:44.108Z,94299.00
2022-08-24T15:45:11.442Z,94294.00
2022-08-24T15:47:47.488Z,94291.00
2022-08-24T15:50:31.112Z,94291.00
2022-08-24T15:53:42.148Z,94299.00
2022-08-24T15:56:21.218Z,94306.00
2022-08-24T15:58:49.545Z,94302.00
2022-08-24T16:01:34.824Z,94302.00
2022-08-24T16:04:12.314Z,94315.00
2022-08-24T16:06:48.305Z,94302.00
2022-08-24T16:09:23.694Z,94304.00
2022-08-24T16:12:16.598Z,94314.00
2022-08-24T16:14:48.445Z,94312.00
2022-08-24T16:17:35.388Z,94306.00
2022-08-24T16:20:29.829Z,94314.00
2022-08-24T16:23:06.653Z,94314.00
2022-08-24T16:25:46.115Z,94309.00
2022-08-24T16:28:22.250Z,94307.00
2022-08-24T16:31:08.164Z,94306.00
2022-08-24T16:33:46.698Z,94304.00
2022-08-24T16:36:20.318Z,94314.00
2022-08-24T16:38:51.650Z,94314.00
2022-08-24T16:41:24.442Z,94302.00
2022-08-24T16:43:51.982Z,94319.00
2022-08-24T16:46:24.797Z,94321.00
2022-08-24T16:48:54.833Z,94318.00
2022-08-24T16:51:24.536Z,94328.00
2022-08-24T16:53:56.062Z,94322.00
2022-08-24T16:56:23.009Z,94328.00
2022-08-24T16:58:53.405Z,94327.00
2022-08-24T17:01:20.523Z,94335.00
2022-08-24T17:03:49.622Z,94334.00
2022-08-24T17:06:22.278Z,94334.00
2022-08-24T17:08:49.306Z,94336.00
2022-08-24T17:11:21.458Z,94331.00
2022-08-24T17:13:50.571Z,94348.00
2022-08-24T17:16:21.453Z,94349.00
2022-08-24T17:18:49.075Z,94348.00
2022-08-24T17:21:16.222Z,94347.00
2022-08-24T17:23:45.738Z,94348.00
2022-08-24T17:26:20.485Z,94352.00
2022-08-24T17:28:51.944Z,94348.00
2022-08-24T17:31:24.810Z,94350.00
2022-08-24T17:33:54.667Z,94356.00
2022-08-24T17:36:25.842Z,94356.00
2022-08-24T17:39:03.517Z,94363.00
2022-08-24T17:41:35.192Z,94361.00
2022-08-24T17:44:02.381Z,94367.00
2022-08-24T17:46:33.013Z,94371.00
2022-08-24T17:49:05.013Z,94368.00
2022-08-24T17:51:31.925Z,94363.00
2022-08-24T17:53:58.853Z,94376.00
2022-08-24T17:56:30.399Z,94375.00
2022-08-24T17:59:15.732Z,94382.00
2022-08-24T18:01:45.618Z,94383.00
2022-08-24T18:04:12.977Z,94380.00
2022-08-24T18:06:40.148Z,94376.00
2022-08-24T18:09:19.587Z,94378.00
2022-08-24T18:11:46.571Z,94377.00
2022-08-24T18:14:13.734Z,94377.00
2022-08-24T18:16:41.075Z,94376.00
2022-08-24T18:19:14.704Z,94374.00
2022-08-24T18:21:42.710Z,94380.00
2022-08-24T18:24:09.641Z,94379.00
2022-08-24T18:26:47.695Z,94378.00
2022-08-24T18:29:21.396Z,94375.00
2022-08-24T18:31:48.974Z,94378.00
2022-08-24T18:34:21.060Z,94377.00
2022-08-24T18:36:49.126Z,94378.00
2022-08-24T18:39:16.195Z,94382.00
2022-08-24T18:41:46.498Z,94381.00
2022-08-24T18:44:20.852Z,94382.00
2022-08-24T18:46:48.935Z,94379.00
2022-08-24T18:49:18.353Z,94387.00
2022-08-24T18:51:48.213Z,94390.00
2022-08-24T18:54:23.993Z,94387.00
2022-08-24T18:56:54.579Z,94388.00
2022-08-24T18:59:24.059Z,94386.00
2022-08-24T19:02:11.587Z,94397.00
2022-08-24T19:04:51.176Z,94396.00
2022-08-24T19:07:20.895Z,94391.00
2022-08-24T19:09:51.220Z,94383.00
2022-08-24T19:12:18.880Z,94387.00
2022-08-24T19:14:47.568Z,94381.00
2022-08-24T19:17:16.978Z,94382.00
2022-08-24T19:19:45.718Z,94385.00
2022-08-24T19:22:12.866Z,94385.00
2022-08-24T19:24:39.895Z,94374.00
2022-08-24T19:27:09.740Z,94381.00
2022-08-24T19:29:55.256Z,94389.00
2022-08-24T19:32:29.079Z,94380.00
2022-08-24T19:34:58.655Z,94382.00
2022-08-24T19:37:25.657Z,94384.00
2022-08-24T19:39:53.186Z,94388.00
2022-08-24T19:42:21.251Z,94378.00
2022-08-24T19:45:07.143Z,94384.00
2022-08-24T19:47:34.801Z,94384.00
2022-08-24T19:50:08.327Z,94378.00
2022-08-24T19:52:36.689Z,94368.00
2022-08-24T19:55:06.998Z,94373.00
2022-08-24T19:57:33.894Z,94376.00
2022-08-24T20:00:18.126Z,94375.00
2022-08-24T20:02:54.846Z,94374.00
2022-08-24T20:05:28.727Z,94372.00
2022-08-24T20:07:57.664Z,94379.00
2022-08-24T20:10:25.813Z,94368.00
2022-08-24T20:12:53.264Z,94374.00
2022-08-24T20:15:21.328Z,94382.00
2022-08-24T20:17:50.184Z,94369.00
2022-08-24T20:20:25.757Z,94377.00
2022-08-24T20:22:53.144Z,94374.00
2022-08-24T20:25:20.904Z,94379.00
2022-08-24T20:28:12.477Z,94367.00
2022-08-24T20:30:47.865Z,94379.00
2022-08-24T20:33:18.203Z,94371.00
2022-08-24T20:35:46.835Z,94371.00
2022-08-24T20:38:16.811Z,94373.00
2022-08-24T20:40:44.275Z,94374.00
2022-08-24T20:43:12.757Z,94376.00
2022-08-24T20:45:42.611Z,94367.00
2022-08-24T20:48:17.416Z,94370.00
2022-08-24T20:50:49.353Z,94363.00
2022-08-24T20:53:16.239Z,94365.00
2022-08-24T20:55:45.526Z,94362.00
2022-08-24T20:58:20.929Z,94369.00
2022-08-24T21:00:50.574Z,94365.00
2022-08-24T21:03:19.956Z,94380.00
2022-08-24T21:05:48.547Z,94357.00
2022-08-24T21:08:18.378Z,94365.00
2022-08-24T21:10:48.428Z,94364.00
2022-08-24T21:13:15.489Z,94366.00
2022-08-24T21:15:42.589Z,94361.00
2022-08-24T21:18:10.848Z,94362.00
2022-08-24T21:20:49.334Z,94361.00
2022-08-24T21:23:30.159Z,94359.00
2022-08-24T21:26:03.965Z,94360.00
2022-08-24T21:28:32.026Z,94369.00
2022-08-24T21:31:05.914Z,94365.00
2022-08-24T21:33:53.305Z,94367.00
2022-08-24T21:36:23.966Z,94374.00
2022-08-24T21:38:53.572Z,94369.00
2022-08-24T21:41:22.175Z,94372.00
2022-08-24T21:43:49.332Z,94377.00
2022-08-24T21:46:17.101Z,94369.00
2022-08-24T21:48:44.089Z,94369.00
2022-08-24T21:51:11.060Z,94370.00
2022-08-24T21:53:40.485Z,94371.00
2022-08-24T21:56:07.953Z,94364.00
2022-08-24T21:58:34.885Z,94375.00
2022-08-24T22:01:04.828Z,94371.00
2022-08-24T22:03:39.808Z,94376.00
2022-08-24T22:06:14.115Z,94367.00
2022-08-24T22:08:45.045Z,94363.00
2022-08-24T22:11:17.346Z,94357.00
2022-08-24T22:13:44.675Z,94361.00
2022-08-24T22:16:13.402Z,94356.00
2022-08-24T22:18:40.923Z,94355.00
2022-08-24T22:21:18.645Z,94357.00
2022-08-24T22:23:47.925Z,94362.00
2022-08-24T22:26:17.645Z,94362.00
2022-08-24T22:28:44.565Z,94364.00
2022-08-24T22:31:22.442Z,94355.00
2022-08-24T22:33:49.845Z,94355.00
2022-08-24T22:36:19.589Z,94359.00
2022-08-24T22:38:49.164Z,94353.00
2022-08-24T22:41:16.676Z,94353.00
2022-08-24T22:44:02.438Z,94354.00
2022-08-24T22:46:29.618Z,94355.00
2022-08-24T22:48:56.642Z,94358.00
2022-08-24T22:51:26.062Z,94354.00
2022-08-24T22:53:53.903Z,94346.00
2022-08-24T22:56:28.459Z,94351.00
2022-08-24T22:58:58.159Z,94341.00
2022-08-24T23:01:32.981Z,94333.00
2022-08-24T23:04:06.394Z,94344.00
2022-08-24T23:06:33.527Z,94338.00
2022-08-24T23:09:00.727Z,94343.00
2022-08-24T23:11:28.090Z,94343.00
2022-08-24T23:13:57.610Z,94345.00
2022-08-24T23:16:26.784Z,94341.00
2022-08-24T23:19:12.302Z,94332.00
2022-08-24T23:21:39.356Z,94337.00
2022-08-24T23:24:10.460Z,94342.00
2022-08-24T23:26:41.345Z,94338.00
2022-08-24T23:29:11.534Z,94326.00
2022-08-24T23:31:39.926Z,94324.00
2022-08-24T23:34:10.397Z,94317.00
2022-08-24T23:36:38.327Z,94321.00
2022-08-24T23:39:10.395Z,94324.00
2022-08-24T23:41:42.170Z,94319.00
2022-08-24T23:44:20.652Z,94313.00
2022-08-24T23:46:50.231Z,94314.00
2022-08-24T23:49:24.631Z,94312.00
2022-08-24T23:51:52.511Z,94309.00
2022-08-24T23:54:23.161Z,94299.00
2022-08-24T23:56:53.592Z,94291.00
2022-08-24T23:59:29.361Z,94292.00
